Jackson Hill, Indiana
Current Conditions -  °F | °C
As of 1:53 PM on Saturday 25 Oct 2014 (Local Time) from KHUF Reporting Station
Haze Haze  
Wind Chill: 74°   Ceiling: Unl
Heat Index: 74°   Visibility: 6mi
Dew Point: 56°   Wind: 7mph
Humidity: 53%   Direction: 300°WNW
Pressure: 29.98"   Gusts: NA
Location:  39.2094°N, 87.3438°W
Report Text: KHUF 251753Z 30006KT 6SM HZ CLR 23/13 A2998 RMK AO2 SLP150 T02330133 10233 20100 58008
Loading
Personal Weather Stations






























Interactive Weather Map
Tropical Storm Tracking
New forecast layout! Learn more

10-Day Weather Forecast

Advertisements
Track Severe Weather on mobile